PACV METAR and TAF weather

Enter ICAO airport designator
Station Type Date Time Source
PACV METAR 2018/12/11 18:05 UTC NOAA

PACV 111805Z 05005KT 10SM -RA FEW022 BKN034 OVC042 02/01 A2873 RMK AO2 UPB1759E01 P0000 T00220006


Station Type Date Time Source
PACV Decoded METAR 2018/12/11 18:05 UTC NOAA

MERLE K. SMITH AIRPORT, AK, United States (PACV) 60-30N 145-29W 13M
Dec 11, 2018 - 01:05 PM EST / 2018.12.11 1805 UTC
Wind: from the NE (050 degrees) at 6 MPH (5 KT):0
Visibility: 10 mile(s):0
Sky conditions: overcast
Weather: light rain
Precipitation last hour: A trace
Temperature: 36.0 F (2.2 C)
Dew Point: 33.1 F (0.6 C)
Relative Humidity: 89%
Pressure (altimeter): 28.73 in. Hg (972 hPa)
ob: PACV 111805Z 05005KT 10SM -RA FEW022 BKN034 OVC042 02/01 A2873 RMK AO2 UPB1759E01 P0000 T00220006
cycle: 18

Station Type Date Time Source
PACV TAF 2018/12/11 18:24 UTC NOAA

TAF PACV 111721Z 1118/1218 09007KT P6SM -SHRASN SCT025 OVC035
TEMPO 1118/1122 5SM -SHRASN BR BKN025
FM120600 11011KT 1 1/2SM -SN BR SCT008 OVC020


Example: see airport list